Time;durP1;ratioP1;P1;durP2;ratioP2;P2;SDS_P1;SDS_P2;PMS_P1;PMS_P2;Temp;Humidity;BMP_temperature;BMP_pressure;BME280_temperature;BME280_humidity;BME280_pressure;Samples;Min_cycle;Max_cycle;Signal;HPM_P1;HPM_P2
2021/06/01 00:00:52;;;;;;;6.37;4.45;;;;;;;11.88;100.00;100648.64;1668939;84;21103;-91
2021/06/01 00:03:19;;;;;;;4.70;4.30;;;;;;;11.89;100.00;100647.23;1669071;85;21517;-89
2021/06/01 00:05:46;;;;;;;6.28;4.80;;;;;;;11.88;100.00;100647.34;1668510;85;21525;-90
2021/06/01 00:08:15;;;;;;;7.37;4.75;;;;;;;11.87;100.00;100640.00;1671591;85;21123;-86
2021/06/01 00:10:48;;;;;;;5.72;4.83;;;;;;;11.87;100.00;100646.98;1665606;86;21992;-86
2021/06/01 00:13:14;;;;;;;5.47;4.67;;;;;;;11.87;100.00;100649.13;1644301;86;21728;-90
2021/06/01 00:15:44;;;;;;;6.00;4.62;;;;;;;11.84;100.00;100638.47;1644146;86;21747;-89
2021/06/01 00:18:11;;;;;;;6.28;4.90;;;;;;;11.86;100.00;100644.05;1671521;85;21134;-88
2021/06/01 00:20:38;;;;;;;6.22;5.58;;;;;;;11.85;100.00;100643.20;1663551;85;21067;-87
2021/06/01 00:23:05;;;;;;;5.50;5.00;;;;;;;11.85;100.00;100643.20;1694153;82;21051;-88
2021/06/01 00:25:32;;;;;;;8.60;5.85;;;;;;;11.87;100.00;100638.70;1695773;84;21839;-89
2021/06/01 00:28:00;;;;;;;6.22;5.62;;;;;;;11.87;100.00;100640.00;1701830;84;21086;-88
2021/06/01 00:30:29;;;;;;;6.40;5.50;;;;;;;11.87;100.00;100632.63;1695604;84;21655;-89
2021/06/01 00:32:56;;;;;;;7.62;5.53;;;;;;;11.85;100.00;100628.85;1701735;84;21129;-87
2021/06/01 00:35:33;;;;;;;;;;;;;;;;;;;;;
2021/06/01 00:37:52;;;;;;;7.65;5.50;;;;;;;11.83;100.00;100629.44;1659729;84;21083;-87
2021/06/01 00:40:21;;;;;;;8.15;5.87;;;;;;;11.80;100.00;100626.61;1695570;84;21106;-88
2021/06/01 00:42:48;;;;;;;7.33;5.55;;;;;;;11.81;100.00;100626.15;1701602;84;21039;-87
2021/06/01 00:45:18;;;;;;;7.92;6.65;;;;;;;11.80;100.00;100624.48;1701737;84;21039;-89
2021/06/01 00:47:45;;;;;;;7.67;6.37;;;;;;;11.81;100.00;100626.97;1670503;84;21035;-89
2021/06/01 00:50:12;;;;;;;10.55;6.17;;;;;;;11.81;100.00;100626.97;1695691;83;21126;-91
2021/06/01 00:52:39;;;;;;;7.83;6.05;;;;;;;11.81;100.00;100624.84;1672977;84;21038;-86
2021/06/01 00:55:14;;;;;;;9.08;6.47;;;;;;;11.80;100.00;100623.19;1673183;84;21051;-86
2021/06/01 00:57:41;;;;;;;7.78;6.50;;;;;;;11.78;100.00;100618.06;1701697;82;21094;-89
2021/06/01 01:03:04;;;;;;;10.05;6.92;;;;;;;11.71;100.00;100627.34;1701586;82;21105;-88
2021/06/01 01:05:38;;;;;;;8.30;6.20;;;;;;;11.70;100.00;100626.98;1683041;83;21590;-91
2021/06/01 01:11:44;;;;;;;;;;;;;;;;;;;;;
2021/06/01 01:14:36;;;;;;;;;;;;;;;;;;;;;
2021/06/01 01:17:55;;;;;;;;;;;;;;;;;;;;;
2021/06/01 01:24:04;;;;;;;;;;;;;;;;;;;;;
2021/06/01 01:45:47;;;;;;;12.30;7.47;;;;;;;11.36;100.00;100615.33;1318883;106;21222;-85
2021/06/01 01:51:51;;;;;;;;;;;;;;;;;;;;;
2021/06/01 01:57:08;;;;;;;;;;;;;;;;;;;;;
2021/06/01 02:01:44;;;;;;;9.80;8.40;;;;;;;11.25;100.00;100599.23;1271633;108;21884;-84
2021/06/01 02:05:38;;;;;;;;;;;;;;;;;;;;;
2021/06/01 02:16:23;;;;;;;;;;;;;;;;;;;;;
2021/06/01 03:06:05;;;;;;;9.78;5.20;;;;;;;11.28;100.00;100560.36;1689257;84;21032;-87
2021/06/01 03:08:34;;;;;;;7.55;5.80;;;;;;;11.30;100.00;100561.89;1670182;84;21636;-89
2021/06/01 03:11:04;;;;;;;6.45;5.40;;;;;;;11.30;100.00;100559.29;1670061;84;21096;-88
2021/06/01 03:13:31;;;;;;;10.75;4.87;;;;;;;11.25;100.00;100554.92;1670383;83;21185;-91
2021/06/01 03:16:18;;;;;;;;;;;;;;;;;;;;;
2021/06/01 03:18:40;;;;;;;7.42;5.25;;;;;;;11.13;100.00;100554.11;1583717;87;21681;-90
2021/06/01 03:21:07;;;;;;;6.25;5.05;;;;;;;11.13;100.00;100546.75;1628234;87;21175;-88
2021/06/01 03:23:38;;;;;;;8.93;4.90;;;;;;;11.09;100.00;100543.56;1559600;87;21601;-88
2021/06/01 03:26:11;;;;;;;8.20;4.67;;;;;;;11.06;100.00;100546.39;1628083;87;21616;-87
2021/06/01 03:28:51;;;;;;;6.22;4.85;;;;;;;11.05;100.00;100546.88;1620233;87;21111;-90
2021/06/01 03:31:33;;;;;;;;;;;;;;;;;;;;;
2021/06/01 03:33:55;;;;;;;6.20;4.33;;;;;;;11.01;100.00;100542.88;1614544;86;21145;-88
2021/06/01 03:36:25;;;;;;;8.10;4.67;;;;;;;11.04;100.00;100537.41;1572424;90;21221;-87
2021/06/01 03:38:52;;;;;;;8.88;4.90;;;;;;;11.05;100.00;100540.86;1560636;86;22067;-87
2021/06/01 03:41:19;;;;;;;6.03;4.87;;;;;;;11.02;100.00;100536.69;1644829;86;21135;-88
2021/06/01 03:43:46;;;;;;;6.05;4.33;;;;;;;11.02;100.00;100533.27;1644722;86;21074;-85
2021/06/01 03:46:14;;;;;;;6.87;4.45;;;;;;;10.99;100.00;100526.98;1666193;86;21039;-88
2021/06/01 03:48:41;;;;;;;8.70;5.10;;;;;;;10.97;100.00;100527.11;1644933;85;21170;-88
2021/06/01 03:51:08;;;;;;;10.43;5.20;;;;;;;10.93;100.00;100526.16;1667929;84;21044;-86
2021/06/01 03:53:37;;;;;;;5.62;5.03;;;;;;;10.93;100.00;100525.70;1644916;85;21071;-88
2021/06/01 03:56:29;;;;;;;6.72;5.30;;;;;;;10.94;100.00;100529.94;1640957;86;21023;-91
2021/06/01 03:58:49;;;;;;;7.33;5.10;;;;;;;10.94;100.00;100535.16;1575556;89;21118;-89
2021/06/01 04:05:24;;;;;;;;;;;;;;;;;;;;;
2021/06/01 04:11:21;;;;;;;;;;;;;;;;;;;;;
2021/06/01 04:14:25;;;;;;;;;;;;;;;;;;;;;
2021/06/01 04:16:45;;;;;;;7.12;5.28;;;;;;;10.91;100.00;100533.27;1301528;107;21278;-87
2021/06/01 04:19:34;;;;;;;;;;;;;;;;;;;;;
2021/06/01 04:22:10;;;;;;;;;;;;;;;;;;;;;
2021/06/01 04:24:56;;;;;;;8.30;5.37;;;;;;;10.89;100.00;100541.20;1297260;109;21269;-91
2021/06/01 04:27:20;;;;;;;9.95;6.00;;;;;;;10.87;100.00;100537.43;1339810;101;21160;-88
2021/06/01 04:29:49;;;;;;;9.40;5.50;;;;;;;10.92;100.00;100540.98;1507839;89;21115;-90
2021/06/01 04:32:16;;;;;;;7.12;5.53;;;;;;;10.95;100.00;100538.12;1569716;86;21107;-89
2021/06/01 04:34:48;;;;;;;14.90;5.93;;;;;;;10.94;100.00;100540.85;1596630;89;21083;-90
2021/06/01 04:37:21;;;;;;;9.43;5.58;;;;;;;10.93;100.00;100542.64;1680609;83;21525;-90
2021/06/01 04:40:01;;;;;;;;;;;;;;;;;;;;;
2021/06/01 04:42:24;;;;;;;6.87;5.50;;;;;;;11.00;100.00;100548.19;1686047;83;21054;-88
2021/06/01 04:44:51;;;;;;;9.70;6.28;;;;;;;10.98;100.00;100541.80;1701113;82;21083;-90
2021/06/01 04:47:20;;;;;;;7.58;6.05;;;;;;;10.96;100.00;100537.66;1701258;82;22195;-90
2021/06/01 04:50:33;;;;;;;8.00;6.03;;;;;;;10.98;100.00;100538.34;1700556;82;21629;-86
2021/06/01 04:53:00;;;;;;;13.03;5.78;;;;;;;10.98;100.00;100532.68;1701568;82;21315;-88
2021/06/01 05:01:49;;;;;;;8.03;5.47;;;;;;;10.97;100.00;100531.50;1579534;90;21118;-89
2021/06/01 05:04:34;;;;;;;;;;;;;;;;;;;;;
2021/06/01 05:07:12;;;;;;;;;;;;;;;;;;;;;
2021/06/01 05:13:02;;;;;;;;;;;;;;;;;;;;;
2021/06/01 05:19:47;;;;;;;;;;;;;;;;;;;;;
2021/06/01 05:23:12;;;;;;;10.68;5.70;;;;;;;11.08;100.00;100531.96;1294924;106;21251;-89
2021/06/01 05:25:45;;;;;;;8.75;5.80;;;;;;;11.11;100.00;100534.31;1318755;106;21164;-90
2021/06/01 05:28:25;;;;;;;;;;;;;;;;;;;;;
2021/06/01 05:38:22;;;;;;;7.28;5.60;;;;;;;11.09;100.00;100527.92;1297769;107;21255;-88
2021/06/01 05:40:51;;;;;;;8.68;5.58;;;;;;;11.04;100.00;100526.16;1404780;96;21681;-88
2021/06/01 05:43:22;;;;;;;6.45;5.20;;;;;;;11.01;100.00;100528.55;1478627;95;21208;-83
2021/06/01 05:45:50;;;;;;;6.90;5.35;;;;;;;10.98;100.00;100526.62;1481757;95;21831;-87
2021/06/01 05:48:53;;;;;;;6.08;5.00;;;;;;;10.95;100.00;100522.48;1548005;88;21150;-90
2021/06/01 05:51:24;;;;;;;6.22;4.92;;;;;;;10.96;100.00;100530.66;1717617;81;21255;-88
2021/06/01 05:53:54;;;;;;;7.80;5.03;;;;;;;10.98;100.00;100532.68;1691432;81;21053;-91
2021/06/01 05:56:21;;;;;;;8.95;5.17;;;;;;;11.03;100.00;100539.65;1700491;81;21050;-88
2021/06/01 05:58:48;;;;;;;6.10;4.50;;;;;;;11.07;100.00;100540.23;1706120;81;21395;-88
2021/06/01 06:01:15;;;;;;;5.87;4.80;;;;;;;11.11;100.00;100541.67;1701989;81;21073;-91
2021/06/01 06:03:45;;;;;;;6.62;4.60;;;;;;;11.16;100.00;100532.19;1682726;81;21089;-88
2021/06/01 06:06:13;;;;;;;9.30;4.65;;;;;;;11.17;100.00;100541.17;1700206;81;21137;-85
2021/06/01 06:08:42;;;;;;;5.33;4.60;;;;;;;11.23;100.00;100537.27;1654922;84;21094;-88
2021/06/01 06:11:10;;;;;;;7.42;4.53;;;;;;;11.25;100.00;100541.05;1701316;82;21092;-89
2021/06/01 06:13:38;;;;;;;7.67;5.20;;;;;;;11.26;100.00;100534.39;1694647;82;21107;-88
2021/06/01 06:16:05;;;;;;;6.12;4.92;;;;;;;11.26;100.00;100534.88;1684037;83;21095;-88
2021/06/01 06:18:44;;;;;;;8.60;5.42;;;;;;;11.26;100.00;100540.09;1677570;83;21127;-87
2021/06/01 06:21:13;;;;;;;6.55;5.15;;;;;;;11.28;100.00;100535.11;1678549;84;21065;-87
2021/06/01 06:23:41;;;;;;;6.00;4.78;;;;;;;11.30;100.00;100528.01;1720669;83;21570;-91
2021/06/01 06:26:09;;;;;;;5.75;4.65;;;;;;;11.31;100.00;100532.73;1674720;83;21045;-89
2021/06/01 06:36:48;;;;;;;8.13;4.70;;;;;;;11.40;100.00;100533.80;1699749;83;20775;-88
2021/06/01 06:39:15;;;;;;;6.65;4.60;;;;;;;11.46;100.00;100531.50;1698495;83;21843;-85
2021/06/01 06:41:42;;;;;;;7.95;5.03;;;;;;;11.49;100.00;100529.16;1698246;83;21567;-86
2021/06/01 06:44:12;;;;;;;8.48;5.17;;;;;;;11.52;100.00;100531.48;1705926;83;21063;-87
2021/06/01 06:46:49;;;;;;;5.65;4.70;;;;;;;11.55;100.00;100522.13;1656965;86;21601;-85
2021/06/01 06:49:12;;;;;;;5.65;4.40;;;;;;;11.60;100.00;100530.40;1695371;82;21094;-86
2021/06/01 06:51:40;;;;;;;7.28;4.65;;;;;;;11.61;100.00;100529.45;1716909;83;21597;-88
2021/06/01 06:54:07;;;;;;;6.58;5.28;;;;;;;11.62;100.00;100532.41;1698281;82;21031;-87
2021/06/01 06:56:34;;;;;;;6.55;5.08;;;;;;;11.61;100.00;100528.64;1642449;84;21095;-87
2021/06/01 06:59:01;;;;;;;6.15;5.00;;;;;;;11.61;100.00;100528.15;1648053;84;21577;-86
2021/06/01 07:01:29;;;;;;;5.47;4.80;;;;;;;11.61;100.00;100528.15;1693162;83;21092;-88
2021/06/01 07:03:56;;;;;;;6.58;5.00;;;;;;;11.63;100.00;100527.55;1640061;84;21028;-89
2021/06/01 07:06:24;;;;;;;6.08;4.70;;;;;;;11.67;100.00;100522.91;1685075;84;21139;-90
2021/06/01 07:08:54;;;;;;;6.15;5.25;;;;;;;11.68;100.00;100520.17;1675588;82;21087;-89
2021/06/01 07:11:22;;;;;;;7.00;4.97;;;;;;;11.71;100.00;100519.09;1678162;83;21158;-89
2021/06/01 07:14:12;;;;;;;8.95;5.50;;;;;;;11.70;100.00;100513.52;1665127;84;21608;-89
2021/06/01 07:16:41;;;;;;;7.95;5.40;;;;;;;11.68;100.00;100504.52;1720767;82;21098;-89
2021/06/01 07:23:18;;;;;;;9.80;5.28;;;;;;;11.71;100.00;100507.84;1677959;83;21102;-90
2021/06/01 07:26:09;;;;;;;;;;;;;;;;;;;;;
2021/06/01 07:28:40;;;;;;;6.60;5.47;;;;;;;11.63;100.00;100507.15;1588322;87;21580;-92
2021/06/01 07:34:57;;;;;;;7.75;6.30;;;;;;;11.64;100.00;100503.13;1588403;88;21023;-88
2021/06/01 07:42:32;;;;;;;;;;;;;;;;;;;;;
2021/06/01 07:45:06;;;;;;;7.78;5.95;;;;;;;11.53;100.00;100508.37;1585446;87;21087;-89
2021/06/01 07:47:34;;;;;;;6.47;5.58;;;;;;;11.49;100.00;100503.08;1617907;86;21143;-87
2021/06/01 07:50:12;;;;;;;6.40;5.55;;;;;;;11.46;100.00;100499.40;1615609;83;21154;-91
2021/06/01 07:52:40;;;;;;;8.30;5.83;;;;;;;11.43;100.00;100504.84;1638242;85;21068;-89
2021/06/01 07:55:26;;;;;;;;;;;;;;;;;;;;;
2021/06/01 10:48:49;;;;;;;8.80;7.12;;;;;;;11.91;100.00;100445.70;1667444;82;21631;-90
2021/06/01 10:51:28;;;;;;;9.70;6.65;;;;;;;11.89;100.00;100446.33;1680627;82;22009;-88
2021/06/01 10:58:25;;;;;;;;;;;;;;;;;;;;;
2021/06/01 11:02:01;;;;;;;;;;;;;;;;;;;;;
2021/06/01 11:53:12;;;;;;;;;;;;;;;;;;;;;
2021/06/01 11:55:59;;;;;;;;;;;;;;;;;;;;;
2021/06/01 13:08:54;;;;;;;5.62;3.98;;;;;;;10.98;100.00;100454.98;1385430;101;26764;-90
2021/06/01 13:21:51;;;;;;;5.40;4.85;;;;;;;10.79;100.00;100443.88;1494243;91;21258;-89
2021/06/01 14:30:15;;;;;;;3.45;3.05;;;;;;;10.75;100.00;100379.98;1481770;91;21164;-90
2021/06/01 15:24:40;;;;;;;13.65;2.72;;;;;;;10.71;100.00;100411.46;1488176;83;21665;-90
2021/06/01 15:32:15;;;;;;;2.12;2.00;;;;;;;10.70;100.00;100414.20;1714823;81;21037;-89
2021/06/01 17:54:06;;;;;;;3.40;3.10;;;;;;;10.26;100.00;100433.60;1728467;80;21659;-93
2021/06/01 19:06:43;;;;;;;6.80;3.60;;;;;;;10.38;100.00;100437.06;1704985;81;20991;-90
2021/06/01 19:12:15;;;;;;;4.30;3.90;;;;;;;10.40;100.00;100446.41;1688258;83;21536;-89
2021/06/01 19:25:57;;;;;;;4.92;3.30;;;;;;;10.44;100.00;100435.28;1644010;84;21159;-88
2021/06/01 19:50:51;;;;;;;2.65;2.42;;;;;;;10.44;100.00;100430.08;1681992;83;21642;-89
2021/06/01 19:53:21;;;;;;;3.87;2.55;;;;;;;10.45;100.00;100420.51;1704045;82;21136;-89
2021/06/01 19:58:55;;;;;;;2.52;2.30;;;;;;;10.47;100.00;100425.95;1741597;81;20193;-90
2021/06/01 20:01:22;;;;;;;2.75;2.40;;;;;;;10.48;100.00;100425.45;1704788;82;21110;-90
2021/06/01 20:03:51;;;;;;;3.45;2.30;;;;;;;10.48;100.00;100423.70;1676588;83;20995;-91
2021/06/01 20:06:19;;;;;;;2.80;2.50;;;;;;;10.49;100.00;100426.66;1722232;82;21061;-88
2021/06/01 20:08:47;;;;;;;3.20;2.60;;;;;;;10.50;100.00;100415.77;1700213;81;21104;-90
2021/06/01 20:11:16;;;;;;;3.47;2.10;;;;;;;10.51;100.00;100414.81;1699330;82;21142;-87
2021/06/01 20:13:47;;;;;;;3.20;2.22;;;;;;;10.52;100.00;100421.20;1730387;81;21082;-91
2021/06/01 20:16:16;;;;;;;8.43;2.62;;;;;;;10.53;100.00;100415.53;1699377;81;21015;-92
2021/06/01 20:18:45;;;;;;;4.87;2.62;;;;;;;10.55;100.00;100417.52;1730284;81;21632;-89
2021/06/01 20:21:14;;;;;;;2.85;2.12;;;;;;;10.57;100.00;100416.94;1698978;81;21058;-91
2021/06/01 20:23:44;;;;;;;3.83;2.55;;;;;;;10.56;100.00;100416.58;1698018;83;21054;-91
2021/06/01 20:26:15;;;;;;;5.03;2.58;;;;;;;10.57;100.00;100414.33;1677127;84;21668;-91
2021/06/01 20:28:52;;;;;;;2.75;2.00;;;;;;;10.59;100.00;100416.34;1673305;83;20960;-89
2021/06/01 20:31:32;;;;;;;4.28;2.10;;;;;;;10.60;100.00;100414.56;1639096;83;21079;-92
2021/06/01 20:34:07;;;;;;;2.10;1.90;;;;;;;10.61;100.00;100410.55;1680215;83;21067;-93
2021/06/01 20:36:31;;;;;;;3.75;2.00;;;;;;;10.63;100.00;100409.94;1675114;84;21070;-88
2021/06/01 20:39:04;;;;;;;2.75;2.00;;;;;;;10.63;100.00;100408.63;1701205;84;21102;-89
2021/06/01 20:41:37;;;;;;;6.67;2.27;;;;;;;10.63;100.00;100400.83;1697532;83;21093;-90
2021/06/01 20:44:05;;;;;;;4.83;2.40;;;;;;;10.64;100.00;100389.46;1668111;84;21174;-91
2021/06/01 20:46:34;;;;;;;2.30;2.10;;;;;;;10.66;100.00;100389.33;1700888;83;21090;-93
2021/06/01 20:49:11;;;;;;;3.92;2.20;;;;;;;10.67;100.00;100385.33;1671080;84;21406;-91
2021/06/01 20:51:33;;;;;;;3.20;1.90;;;;;;;10.69;100.00;100391.25;1670448;84;21636;-91
2021/06/01 20:54:07;;;;;;;2.58;2.17;;;;;;;10.71;100.00;100386.72;1671072;84;21051;-91
2021/06/01 20:56:46;;;;;;;;;;;;;;;;;;;;;
2021/06/01 20:59:17;;;;;;;3.75;2.42;;;;;;;10.73;100.00;100378.32;1679320;83;20980;-91
2021/06/01 21:01:49;;;;;;;2.72;2.42;;;;;;;10.75;100.00;100387.30;1679480;83;21649;-90
2021/06/01 21:04:37;;;;;;;;;;;;;;;;;;;;;
2021/06/01 21:07:11;;;;;;;;;;;;;;;;;;;;;
2021/06/01 21:09:33;;;;;;;5.97;2.58;;;;;;;10.82;100.00;100389.77;1557421;90;21147;-90
2021/06/01 21:12:02;;;;;;;3.72;2.40;;;;;;;10.83;100.00;100384.11;1590719;89;21646;-90
2021/06/01 21:14:42;;;;;;;;;;;;;;;;;;;;;
2021/06/01 21:17:11;;;;;;;18.23;3.15;;;;;;;10.85;100.00;100373.09;1574728;89;21128;-91
2021/06/01 21:23:18;;;;;;;;;;;;;;;;;;;;;
2021/06/01 21:25:46;;;;;;;4.60;3.22;;;;;;;10.91;100.00;100363.48;1407009;99;21149;-90
